createdAt,value
2023-03-07T00:01:00.800Z,99787.66
2023-03-07T00:03:27.510Z,99781.38
2023-03-07T00:06:04.996Z,99787.56
2023-03-07T00:08:31.975Z,99784.72
2023-03-07T00:11:06.791Z,99785.88
2023-03-07T00:13:35.161Z,99783.50
2023-03-07T00:16:08.226Z,99776.13
2023-03-07T00:18:35.273Z,99778.84
2023-03-07T00:21:07.367Z,99784.59
2023-03-07T00:23:35.287Z,99789.41
2023-03-07T00:26:05.064Z,99789.28
2023-03-07T00:28:31.643Z,99792.03
2023-03-07T00:31:07.205Z,99787.81
2023-03-07T00:33:34.406Z,99790.41
2023-03-07T00:36:11.123Z,99793.97
2023-03-07T00:38:37.697Z,99790.72
2023-03-07T00:41:12.070Z,99787.69
2023-03-07T00:43:39.082Z,99794.41
2023-03-07T00:46:05.852Z,99790.66
2023-03-07T00:48:37.538Z,99779.06
2023-03-07T00:51:05.755Z,99776.88
2023-03-07T00:53:32.316Z,99768.47
2023-03-07T00:56:13.335Z,99763.19
2023-03-07T00:58:40.035Z,99773.91
2023-03-07T01:01:09.694Z,99773.56
2023-03-07T01:03:36.763Z,99772.09
2023-03-07T01:06:09.727Z,99766.16
2023-03-07T01:08:36.169Z,99765.94
2023-03-07T01:11:05.098Z,99762.78
2023-03-07T01:13:33.095Z,99758.53
2023-03-07T01:16:15.122Z,99751.34
2023-03-07T01:18:42.461Z,99750.94
2023-03-07T01:21:14.476Z,99751.94
2023-03-07T01:23:41.121Z,99745.13
2023-03-07T01:26:07.568Z,99742.66
2023-03-07T01:28:33.986Z,99745.66
2023-03-07T01:31:00.970Z,99738.25
2023-03-07T01:33:27.443Z,99736.53
2023-03-07T01:35:53.951Z,99732.28
2023-03-07T01:38:20.500Z,99728.28
2023-03-07T01:40:47.022Z,99732.59
2023-03-07T01:43:32.456Z,99730.47
2023-03-07T01:46:30.097Z,99722.63
2023-03-07T01:49:01.082Z,99731.31
2023-03-07T01:51:28.967Z,99720.56
2023-03-07T01:53:57.298Z,99727.59
2023-03-07T01:56:23.832Z,99728.50
2023-03-07T01:58:51.572Z,99725.69
2023-03-07T02:01:18.228Z,99730.44
2023-03-07T02:03:55.233Z,99726.41
2023-03-07T02:06:23.185Z,99732.81
2023-03-07T02:08:51.111Z,99737.25
2023-03-07T02:11:17.944Z,99736.44
2023-03-07T02:13:44.599Z,99733.13
2023-03-07T02:16:11.679Z,99733.59
2023-03-07T02:18:47.891Z,99720.84
2023-03-07T02:21:23.289Z,99719.84
2023-03-07T02:24:21.424Z,99713.84
2023-03-07T02:26:51.098Z,99712.06
2023-03-07T02:29:17.659Z,99709.53
2023-03-07T02:31:44.754Z,99714.28
2023-03-07T02:34:21.720Z,99712.00
2023-03-07T02:36:52.200Z,99710.78
2023-03-07T02:39:21.578Z,99711.81
2023-03-07T02:41:49.693Z,99711.47
2023-03-07T02:44:16.122Z,99706.63
2023-03-07T02:46:42.568Z,99708.50
2023-03-07T02:49:08.977Z,99705.75
2023-03-07T02:51:35.445Z,99709.28
2023-03-07T02:54:01.942Z,99702.09
2023-03-07T02:56:28.440Z,99699.41
2023-03-07T02:58:54.865Z,99694.44
2023-03-07T03:01:21.381Z,99697.13
2023-03-07T03:03:47.974Z,99688.84
2023-03-07T03:06:14.724Z,99692.56
2023-03-07T03:08:41.168Z,99690.94
2023-03-07T03:11:07.654Z,99688.50
2023-03-07T03:13:34.191Z,99687.88
2023-03-07T03:16:00.728Z,99690.56
2023-03-07T03:18:31.253Z,99701.19
2023-03-07T03:20:57.694Z,99704.06
2023-03-07T03:23:27.544Z,99705.91
2023-03-07T03:26:02.165Z,99706.38
2023-03-07T03:28:29.172Z,99705.31
2023-03-07T03:31:00.671Z,99705.00
2023-03-07T03:33:29.158Z,99702.19
2023-03-07T03:36:00.387Z,99701.41
2023-03-07T03:38:27.307Z,99704.66
2023-03-07T03:40:54.841Z,99708.44
2023-03-07T03:43:21.357Z,99714.28
2023-03-07T03:45:55.411Z,99709.50
2023-03-07T03:48:22.536Z,99710.31
2023-03-07T03:50:48.943Z,99710.16
2023-03-07T03:53:15.439Z,99709.50
2023-03-07T03:55:41.892Z,99715.28
2023-03-07T03:58:08.342Z,99712.66
2023-03-07T04:00:34.749Z,99711.09
2023-03-07T04:03:01.263Z,99706.13
2023-03-07T04:05:27.791Z,99705.19
2023-03-07T04:07:54.191Z,99702.81
2023-03-07T04:10:20.714Z,99711.72
2023-03-07T04:12:47.104Z,99712.16
2023-03-07T04:15:13.551Z,99723.19
2023-03-07T04:17:39.958Z,99718.09
2023-03-07T04:20:11.006Z,99710.63
2023-03-07T04:22:37.451Z,99712.41
2023-03-07T04:25:04.107Z,99707.03
2023-03-07T04:27:30.722Z,99705.50
2023-03-07T04:29:57.209Z,99708.25
2023-03-07T04:32:23.774Z,99713.66
2023-03-07T04:34:50.218Z,99710.53
2023-03-07T04:37:16.617Z,99707.53
2023-03-07T04:39:43.123Z,99703.56
2023-03-07T04:42:09.628Z,99700.81
2023-03-07T04:44:36.103Z,99708.94
2023-03-07T04:47:02.727Z,99704.13
2023-03-07T04:49:29.171Z,99703.22
2023-03-07T04:51:55.644Z,99709.69
2023-03-07T04:54:22.104Z,99700.44
2023-03-07T04:56:48.622Z,99701.69
2023-03-07T04:59:15.022Z,99702.16
2023-03-07T05:01:41.552Z,99710.00
2023-03-07T05:04:08.112Z,99711.50
2023-03-07T05:06:34.557Z,99714.59
2023-03-07T05:09:00.982Z,99716.41
2023-03-07T05:11:27.435Z,99702.16
2023-03-07T05:13:53.920Z,99712.97
2023-03-07T05:16:20.452Z,99715.47
2023-03-07T05:18:46.926Z,99720.38
2023-03-07T05:21:13.447Z,99720.84
2023-03-07T05:23:40.005Z,99722.97
2023-03-07T05:26:06.575Z,99719.84
2023-03-07T05:28:34.048Z,99718.03
2023-03-07T05:31:00.563Z,99718.16
2023-03-07T05:33:27.079Z,99716.75
2023-03-07T05:35:55.582Z,99718.81
2023-03-07T05:38:22.043Z,99715.72
2023-03-07T05:40:48.617Z,99721.16
2023-03-07T05:43:15.039Z,99724.94
2023-03-07T05:45:41.504Z,99726.19
2023-03-07T05:48:08.002Z,99731.91
2023-03-07T05:50:34.664Z,99726.44
2023-03-07T05:53:01.146Z,99720.84
2023-03-07T05:55:27.664Z,99730.59
2023-03-07T05:57:54.122Z,99730.28
2023-03-07T06:00:21.206Z,99729.13
2023-03-07T06:02:47.795Z,99734.22
2023-03-07T06:05:14.387Z,99737.94
2023-03-07T06:07:40.841Z,99734.34
2023-03-07T06:10:07.880Z,99750.16
2023-03-07T06:12:34.370Z,99735.72
2023-03-07T06:15:00.803Z,99734.84
2023-03-07T06:17:27.260Z,99744.75
2023-03-07T06:19:53.714Z,99742.31
2023-03-07T06:22:20.224Z,99750.84
2023-03-07T06:24:46.722Z,99749.38
2023-03-07T06:27:13.266Z,99743.03
2023-03-07T06:29:39.706Z,99748.56
2023-03-07T06:32:06.497Z,99747.94
2023-03-07T06:34:33.935Z,99747.69
2023-03-07T06:37:03.911Z,99740.13
2023-03-07T06:39:31.487Z,99740.22
2023-03-07T06:41:58.044Z,99742.75
2023-03-07T06:44:25.190Z,99748.13
2023-03-07T06:46:51.708Z,99752.72
2023-03-07T06:49:18.203Z,99751.97
2023-03-07T06:51:45.201Z,99753.41
2023-03-07T06:54:12.204Z,99757.59
2023-03-07T06:56:38.969Z,99758.72
2023-03-07T06:59:08.767Z,99751.88
2023-03-07T07:01:35.974Z,99748.84
2023-03-07T07:04:04.084Z,99750.16
2023-03-07T07:06:30.698Z,99754.38
2023-03-07T07:09:01.194Z,99750.91
2023-03-07T07:11:28.932Z,99752.13
2023-03-07T07:13:56.157Z,99749.00
2023-03-07T07:16:25.000Z,99746.53
2023-03-07T07:18:52.273Z,99748.53
2023-03-07T07:21:19.830Z,99742.03
2023-03-07T07:23:46.600Z,99747.44
2023-03-07T07:26:13.073Z,99754.53
2023-03-07T07:28:39.533Z,99746.94
2023-03-07T07:31:06.170Z,99754.53
2023-03-07T07:33:32.782Z,99759.88
2023-03-07T07:35:59.354Z,99760.28
2023-03-07T07:38:25.838Z,99763.47
2023-03-07T07:40:52.378Z,99757.59
2023-03-07T07:43:18.937Z,99761.44
2023-03-07T07:45:45.630Z,99760.94
2023-03-07T07:48:12.154Z,99765.78
2023-03-07T07:50:38.663Z,99762.97
2023-03-07T07:53:05.157Z,99762.47
2023-03-07T07:55:31.684Z,99759.38
2023-03-07T07:57:58.352Z,99757.19
2023-03-07T08:00:25.182Z,99762.28
2023-03-07T08:02:51.764Z,99761.63
2023-03-07T08:05:19.943Z,99762.94
2023-03-07T08:07:47.228Z,99775.38
2023-03-07T08:10:16.035Z,99764.97
2023-03-07T08:12:50.839Z,99773.41
2023-03-07T08:15:18.259Z,99775.81
2023-03-07T08:17:44.988Z,99775.66
2023-03-07T08:20:11.850Z,99776.13
2023-03-07T08:22:39.130Z,99775.97
2023-03-07T08:25:10.239Z,99783.91
2023-03-07T08:27:36.688Z,99782.50
2023-03-07T08:30:03.893Z,99779.63
2023-03-07T08:32:30.373Z,99778.88
2023-03-07T08:34:56.983Z,99785.78
2023-03-07T08:37:23.492Z,99785.03
2023-03-07T08:39:49.933Z,99782.03
2023-03-07T08:42:16.510Z,99785.91
2023-03-07T08:44:43.025Z,99782.50
2023-03-07T08:47:11.372Z,99782.06
2023-03-07T08:49:38.110Z,99781.25
2023-03-07T08:52:04.879Z,99783.53
2023-03-07T08:54:32.417Z,99783.31
2023-03-07T08:57:00.236Z,99786.09
2023-03-07T08:59:26.917Z,99781.94
2023-03-07T09:01:53.559Z,99786.63
2023-03-07T09:04:20.194Z,99784.53
2023-03-07T09:06:46.724Z,99784.34
2023-03-07T09:09:13.277Z,99783.56
2023-03-07T09:11:39.998Z,99780.22
2023-03-07T09:14:06.862Z,99781.22
2023-03-07T09:16:33.417Z,99779.22
2023-03-07T09:19:00.155Z,99780.31
2023-03-07T09:21:26.670Z,99774.53
2023-03-07T09:23:53.209Z,99771.78
2023-03-07T09:26:19.709Z,99770.91
2023-03-07T09:28:46.489Z,99771.00
2023-03-07T09:31:14.587Z,99769.97
2023-03-07T09:33:41.974Z,99768.50
2023-03-07T09:36:11.268Z,99767.59
2023-03-07T09:38:38.901Z,99767.84
2023-03-07T09:41:40.877Z,99765.59
2023-03-07T09:44:10.445Z,99770.28
2023-03-07T09:46:57.762Z,99768.69
2023-03-07T09:49:40.075Z,99767.28
2023-03-07T09:52:12.954Z,99762.97
2023-03-07T09:54:44.418Z,99760.69
2023-03-07T09:57:55.374Z,99753.47
2023-03-07T10:00:29.673Z,99758.13
2023-03-07T10:03:21.444Z,99757.63
2023-03-07T10:05:49.678Z,99756.56
2023-03-07T10:08:28.563Z,99754.25
2023-03-07T10:11:13.573Z,99753.03
2023-03-07T10:14:21.114Z,99750.06
2023-03-07T10:17:05.697Z,99754.53
2023-03-07T10:20:24.723Z,99750.19
2023-03-07T10:23:09.369Z,99731.13
2023-03-07T10:25:58.153Z,99733.09
2023-03-07T10:28:31.764Z,99736.28
2023-03-07T10:31:13.075Z,99728.84
2023-03-07T10:33:42.793Z,99725.56
2023-03-07T10:36:32.698Z,99725.63
2023-03-07T10:39:25.038Z,99716.00
2023-03-07T10:41:52.718Z,99726.41
2023-03-07T10:44:21.796Z,99725.56
2023-03-07T10:46:56.519Z,99716.75
2023-03-07T10:49:28.058Z,99719.81
2023-03-07T10:52:03.132Z,99723.94
2023-03-07T10:54:33.125Z,99719.97
2023-03-07T10:57:02.523Z,99716.22
2023-03-07T10:59:28.929Z,99706.81
2023-03-07T11:01:58.075Z,99701.38
2023-03-07T11:04:27.381Z,99709.41
2023-03-07T11:06:58.880Z,99715.59
2023-03-07T11:09:36.247Z,99708.91
2023-03-07T11:12:05.920Z,99700.94
2023-03-07T11:14:47.702Z,99692.22
2023-03-07T11:17:44.846Z,99691.78
2023-03-07T11:20:25.021Z,99675.25
2023-03-07T11:23:19.090Z,99667.41
2023-03-07T11:25:45.597Z,99667.75
2023-03-07T11:28:24.002Z,99673.09
2023-03-07T11:30:53.654Z,99671.84
2023-03-07T11:33:58.634Z,99668.47
2023-03-07T11:36:28.832Z,99657.97
2023-03-07T11:39:00.450Z,99659.22
2023-03-07T11:41:37.472Z,99653.78
2023-03-07T11:44:18.857Z,99649.56
2023-03-07T11:47:02.798Z,99651.34
2023-03-07T11:50:05.508Z,99656.06
2023-03-07T11:52:46.868Z,99650.19
2023-03-07T11:55:25.595Z,99645.63
2023-03-07T11:58:22.451Z,99648.78
2023-03-07T12:00:54.881Z,99641.56
2023-03-07T12:03:48.646Z,99637.09
2023-03-07T12:06:52.739Z,99636.53
2023-03-07T12:09:31.194Z,99636.47
2023-03-07T12:12:34.644Z,99621.94
2023-03-07T12:15:38.070Z,99627.47
2023-03-07T12:18:50.958Z,99629.88
2023-03-07T12:21:17.336Z,99637.88
2023-03-07T12:23:58.337Z,99629.88
2023-03-07T12:27:19.040Z,99622.81
2023-03-07T12:29:54.502Z,99623.09
2023-03-07T12:32:25.858Z,99624.84
2023-03-07T12:35:14.338Z,99620.34
2023-03-07T12:37:47.634Z,99610.00
2023-03-07T12:59:12.915Z,99615.88
2023-03-07T13:01:47.044Z,99595.44
2023-03-07T13:04:16.614Z,99600.00
2023-03-07T13:06:45.277Z,99583.75
2023-03-07T13:09:33.427Z,99582.53
2023-03-07T13:12:22.983Z,99584.16
2023-03-07T13:15:01.094Z,99579.84
2023-03-07T13:17:30.961Z,99576.47
2023-03-07T13:20:34.771Z,99575.47
2023-03-07T13:23:21.160Z,99575.22
2023-03-07T13:25:58.018Z,99589.56
2023-03-07T13:28:33.392Z,99588.41
2023-03-07T13:31:27.131Z,99579.97
2023-03-07T13:33:54.114Z,99581.44
2023-03-07T13:36:38.752Z,99583.75
2023-03-07T13:39:37.652Z,99581.44
2023-03-07T13:42:04.235Z,99577.63
2023-03-07T13:44:39.909Z,99573.81
2023-03-07T13:47:41.292Z,99579.59
2023-03-07T13:50:49.337Z,99563.09
2023-03-07T13:53:20.164Z,99564.53
2023-03-07T13:56:02.236Z,99562.41
2023-03-07T13:58:39.848Z,99560.78
2023-03-07T14:01:14.858Z,99570.16
2023-03-07T14:03:51.226Z,99559.19
2023-03-07T14:06:33.086Z,99552.31
2023-03-07T14:09:02.571Z,99554.78
2023-03-07T14:11:38.120Z,99555.63
2023-03-07T14:14:15.743Z,99560.06
2023-03-07T14:16:50.745Z,99555.16
2023-03-07T14:19:57.162Z,99556.50
2023-03-07T14:22:41.961Z,99544.41
2023-03-07T14:25:14.821Z,99547.72
2023-03-07T14:28:02.336Z,99550.94
2023-03-07T14:30:33.780Z,99549.16
2023-03-07T14:33:01.339Z,99551.63
2023-03-07T14:35:38.527Z,99538.81
2023-03-07T14:38:16.619Z,99523.50
2023-03-07T14:40:49.559Z,99510.00
2023-03-07T14:43:32.942Z,99511.78
2023-03-07T14:46:05.466Z,99500.72
2023-03-07T14:48:54.902Z,99489.56
2023-03-07T14:51:25.450Z,99498.06
2023-03-07T14:53:52.410Z,99515.16
2023-03-07T14:56:23.752Z,99509.09
2023-03-07T14:58:57.871Z,99501.94
2023-03-07T15:01:31.851Z,99498.38
2023-03-07T15:03:58.966Z,99487.31
2023-03-07T15:06:27.380Z,99486.00
2023-03-07T15:08:57.037Z,99497.69
2023-03-07T15:11:37.009Z,99498.06
2023-03-07T15:14:22.051Z,99500.38
2023-03-07T15:16:51.345Z,99500.53
2023-03-07T15:19:32.949Z,99499.09
2023-03-07T15:22:03.382Z,99491.59
2023-03-07T15:24:38.467Z,99496.31
2023-03-07T15:27:10.485Z,99499.81
2023-03-07T15:29:39.312Z,99500.09
2023-03-07T15:32:07.395Z,99509.00
2023-03-07T15:34:40.110Z,99516.41
2023-03-07T15:37:33.893Z,99510.00
2023-03-07T15:40:08.408Z,99496.06
2023-03-07T15:42:52.452Z,99496.06
2023-03-07T15:45:28.254Z,99498.47
2023-03-07T15:47:55.347Z,99506.06
2023-03-07T15:50:24.929Z,99504.16
2023-03-07T15:52:53.555Z,99499.09
2023-03-07T15:55:24.270Z,99499.81
2023-03-07T15:57:55.142Z,99512.63
2023-03-07T16:00:34.910Z,99511.75
2023-03-07T16:03:21.039Z,99495.25
2023-03-07T16:05:47.583Z,99483.16
2023-03-07T16:08:16.874Z,99491.78
2023-03-07T16:10:58.725Z,99503.72
2023-03-07T16:13:30.119Z,99500.06
2023-03-07T16:16:07.115Z,99501.03
2023-03-07T16:18:34.947Z,99495.81
2023-03-07T16:21:01.609Z,99499.88
2023-03-07T16:23:31.203Z,99504.88
2023-03-07T16:25:59.494Z,99507.47
2023-03-07T16:28:26.375Z,99503.00
2023-03-07T16:30:53.092Z,99498.47
2023-03-07T16:33:19.744Z,99500.88
2023-03-07T16:35:46.286Z,99494.44
2023-03-07T16:38:13.131Z,99506.28
2023-03-07T16:40:42.142Z,99506.38
2023-03-07T16:43:31.103Z,99499.94
2023-03-07T16:45:57.744Z,99497.97
2023-03-07T16:48:24.491Z,99502.25
2023-03-07T16:50:51.097Z,99499.56
2023-03-07T16:53:17.702Z,99487.38
2023-03-07T16:55:44.232Z,99487.19
2023-03-07T16:58:30.491Z,99492.97
2023-03-07T17:00:58.977Z,99498.47
2023-03-07T17:03:26.652Z,99506.63
2023-03-07T17:05:53.142Z,99502.69
2023-03-07T17:08:19.654Z,99504.91
2023-03-07T17:10:46.270Z,99514.03
2023-03-07T17:13:16.995Z,99516.41
2023-03-07T17:15:44.526Z,99512.84
2023-03-07T17:18:12.104Z,99512.75
2023-03-07T17:20:38.722Z,99523.75
2023-03-07T17:23:05.187Z,99525.19
2023-03-07T17:25:31.666Z,99523.59
2023-03-07T17:28:00.641Z,99520.72
2023-03-07T17:30:29.715Z,99524.13
2023-03-07T17:32:56.709Z,99521.53
2023-03-07T17:35:23.546Z,99530.94
2023-03-07T17:37:52.973Z,99529.28
2023-03-07T17:40:20.474Z,99534.50
2023-03-07T17:42:49.869Z,99531.22
2023-03-07T17:45:16.625Z,99534.72
2023-03-07T17:47:43.129Z,99539.66
2023-03-07T17:50:11.162Z,99548.00
2023-03-07T17:52:37.685Z,99542.50
2023-03-07T17:55:09.516Z,99539.63
2023-03-07T17:57:36.522Z,99548.75
2023-03-07T18:00:06.891Z,99551.94
2023-03-07T18:02:35.250Z,99561.16
2023-03-07T18:05:01.748Z,99568.09
2023-03-07T18:07:28.555Z,99574.75
2023-03-07T18:10:07.095Z,99575.16
2023-03-07T18:12:34.524Z,99575.16
2023-03-07T18:15:01.081Z,99567.78
2023-03-07T18:17:33.296Z,99570.75
2023-03-07T18:20:08.136Z,99564.41
2023-03-07T18:22:34.680Z,99566.69
2023-03-07T18:25:01.112Z,99570.22
2023-03-07T18:27:27.550Z,99563.63
2023-03-07T18:29:54.080Z,99565.34
2023-03-07T18:32:20.641Z,99566.25
2023-03-07T18:34:47.239Z,99567.94
2023-03-07T18:37:15.547Z,99576.19
2023-03-07T18:39:42.009Z,99586.00
2023-03-07T18:42:08.714Z,99584.91
2023-03-07T18:44:35.263Z,99577.47
2023-03-07T18:47:01.792Z,99585.22
2023-03-07T18:49:28.256Z,99583.22
2023-03-07T18:51:54.912Z,99568.88
2023-03-07T18:54:21.465Z,99570.19
2023-03-07T18:56:48.228Z,99569.19
2023-03-07T18:59:15.766Z,99564.34
2023-03-07T19:01:42.278Z,99572.63
2023-03-07T19:04:09.124Z,99560.13
2023-03-07T19:06:40.634Z,99565.72
2023-03-07T19:09:19.372Z,99555.63
2023-03-07T19:11:46.257Z,99552.25
2023-03-07T19:14:13.055Z,99542.72
2023-03-07T19:16:39.744Z,99554.72
2023-03-07T19:19:06.260Z,99557.09
2023-03-07T19:21:32.956Z,99561.94
2023-03-07T19:24:03.355Z,99566.97
2023-03-07T19:26:30.053Z,99567.66
2023-03-07T19:28:57.067Z,99569.03
2023-03-07T19:31:26.341Z,99568.03
2023-03-07T19:33:53.492Z,99568.50
2023-03-07T19:36:27.299Z,99571.00
2023-03-07T19:38:56.270Z,99565.41
2023-03-07T19:41:24.972Z,99575.19
2023-03-07T19:43:52.006Z,99573.19
2023-03-07T19:46:20.128Z,99573.50
2023-03-07T19:48:46.737Z,99567.47
2023-03-07T19:51:15.665Z,99565.22
2023-03-07T19:53:43.699Z,99561.16
2023-03-07T19:56:13.771Z,99565.22
2023-03-07T19:58:40.275Z,99557.00
2023-03-07T20:01:12.186Z,99559.69
2023-03-07T20:03:39.185Z,99565.94
2023-03-07T20:06:07.878Z,99568.69
2023-03-07T20:08:34.857Z,99561.31
2023-03-07T20:11:13.354Z,99552.47
2023-03-07T20:13:41.311Z,99548.13
2023-03-07T20:16:10.324Z,99548.13
2023-03-07T20:18:37.111Z,99545.00
2023-03-07T20:21:09.282Z,99540.38
2023-03-07T20:23:36.084Z,99551.97
2023-03-07T20:26:04.825Z,99552.41
2023-03-07T20:28:31.901Z,99554.06
2023-03-07T20:30:58.957Z,99561.69
2023-03-07T20:33:25.502Z,99568.69
2023-03-07T20:36:04.965Z,99570.13
2023-03-07T20:38:33.283Z,99572.69
2023-03-07T20:41:05.342Z,99586.41
2023-03-07T20:43:33.118Z,99576.56
2023-03-07T20:46:12.988Z,99569.84
2023-03-07T20:48:40.867Z,99575.38
2023-03-07T20:51:15.946Z,99574.16
2023-03-07T20:53:42.834Z,99574.94
2023-03-07T20:56:09.369Z,99558.72
2023-03-07T20:58:36.028Z,99572.59
2023-03-07T21:01:02.934Z,99571.66
2023-03-07T21:03:29.750Z,99571.91
2023-03-07T21:05:58.593Z,99568.22
2023-03-07T21:08:25.373Z,99577.50
2023-03-07T21:11:02.083Z,99577.50
2023-03-07T21:13:28.842Z,99577.72
2023-03-07T21:16:00.507Z,99580.50
2023-03-07T21:18:27.449Z,99578.63
2023-03-07T21:20:54.011Z,99575.94
2023-03-07T21:23:20.438Z,99581.31
2023-03-07T21:25:47.204Z,99585.09
2023-03-07T21:28:13.892Z,99581.84
2023-03-07T21:30:40.480Z,99584.97
2023-03-07T21:33:07.128Z,99582.97
2023-03-07T21:35:40.298Z,99582.75
2023-03-07T21:38:07.262Z,99580.44
2023-03-07T21:40:33.791Z,99581.31
2023-03-07T21:43:00.266Z,99586.69
2023-03-07T21:45:26.781Z,99584.88
2023-03-07T21:47:54.326Z,99586.56
2023-03-07T21:50:20.985Z,99590.81
2023-03-07T21:52:47.577Z,99584.88
2023-03-07T21:55:14.106Z,99584.22
2023-03-07T21:57:40.566Z,99582.91
2023-03-07T22:00:08.429Z,99583.13
2023-03-07T22:02:37.673Z,99584.47
2023-03-07T22:05:04.932Z,99587.84
2023-03-07T22:07:31.673Z,99583.81
2023-03-07T22:09:58.265Z,99588.19
2023-03-07T22:12:24.686Z,99597.66
2023-03-07T22:14:51.297Z,99593.31
2023-03-07T22:17:17.741Z,99602.81
2023-03-07T22:19:44.192Z,99609.38
2023-03-07T22:22:10.658Z,99608.63
2023-03-07T22:24:37.243Z,99616.09
2023-03-07T22:27:03.681Z,99619.44
2023-03-07T22:29:30.097Z,99621.00
2023-03-07T22:31:56.830Z,99611.94
2023-03-07T22:34:23.296Z,99616.19
2023-03-07T22:36:55.660Z,99609.69
2023-03-07T22:39:22.160Z,99617.72
2023-03-07T22:41:48.797Z,99609.00
2023-03-07T22:44:18.293Z,99617.78
2023-03-07T22:46:49.576Z,99612.50
2023-03-07T22:49:16.284Z,99620.97
2023-03-07T22:51:42.844Z,99620.25
2023-03-07T22:54:09.292Z,99616.41
2023-03-07T22:56:36.239Z,99612.56
2023-03-07T22:59:05.217Z,99616.91
2023-03-07T23:01:32.390Z,99614.69
2023-03-07T23:04:00.237Z,99608.25
2023-03-07T23:06:29.458Z,99612.16
2023-03-07T23:08:58.355Z,99613.69
2023-03-07T23:11:25.332Z,99618.00
2023-03-07T23:13:52.877Z,99614.28
2023-03-07T23:16:22.267Z,99620.03
2023-03-07T23:18:50.829Z,99624.38
2023-03-07T23:21:19.591Z,99627.22
2023-03-07T23:23:46.871Z,99631.13
2023-03-07T23:26:27.819Z,99627.88
2023-03-07T23:28:55.013Z,99632.00
2023-03-07T23:31:27.258Z,99628.34
2023-03-07T23:33:58.578Z,99629.13
2023-03-07T23:36:26.746Z,99633.91
2023-03-07T23:38:54.025Z,99636.31
2023-03-07T23:41:21.462Z,99643.72
2023-03-07T23:43:59.071Z,99642.09
2023-03-07T23:46:26.268Z,99645.03
2023-03-07T23:48:52.982Z,99653.00
2023-03-07T23:51:20.782Z,99641.97
2023-03-07T23:53:47.457Z,99633.97
2023-03-07T23:56:14.574Z,99626.78
2023-03-07T23:58:42.153Z,99629.34
